Time;durP1;ratioP1;P1;durP2;ratioP2;P2;SDS_P1;SDS_P2;PMS_P1;PMS_P2;Temp;Humidity;BMP_temperature;BMP_pressure;BME280_temperature;BME280_humidity;BME280_pressure;Samples;Min_cycle;Max_cycle;Signal;HPM_P1;HPM_P2
2022/04/08 00:00:59;;;;;;;3.90;2.20;;;;;;;5.68;100.00;97568.81;4968311;28;20052;-81
2022/04/08 00:03:26;;;;;;;6.37;3.20;;;;;;;5.69;100.00;97575.72;5006477;28;20046;-81
2022/04/08 00:05:54;;;;;;;3.23;2.43;;;;;;;5.69;100.00;97577.50;5011806;28;20128;-82
2022/04/08 00:08:21;;;;;;;3.73;2.53;;;;;;;5.70;100.00;97579.19;4999024;28;20049;-81
2022/04/08 00:10:48;;;;;;;3.93;2.30;;;;;;;5.54;100.00;97569.47;5011012;28;20047;-82
2022/04/08 00:13:15;;;;;;;3.87;2.63;;;;;;;5.62;100.00;97585.66;5011410;28;20052;-82
2022/04/08 00:15:42;;;;;;;3.40;2.20;;;;;;;5.60;100.00;97577.03;4977217;28;20046;-82
2022/04/08 00:18:08;;;;;;;6.60;2.57;;;;;;;5.52;100.00;97575.72;4993360;28;20033;-82
2022/04/08 00:20:35;;;;;;;5.37;2.40;;;;;;;5.57;100.00;97576.34;4996125;28;20469;-81
2022/04/08 00:23:03;;;;;;;3.20;2.40;;;;;;;5.55;100.00;97583.41;4979212;28;20069;-83
2022/04/08 00:25:30;;;;;;;3.20;2.47;;;;;;;5.52;100.00;97594.06;4964719;28;20084;-81
2022/04/08 00:27:57;;;;;;;4.47;2.47;;;;;;;5.54;100.00;97600.06;4996908;28;20121;-82
2022/04/08 00:30:24;;;;;;;3.90;2.30;;;;;;;5.51;100.00;97601.06;5006842;28;20034;-82
2022/04/08 00:32:51;;;;;;;4.17;2.57;;;;;;;5.49;100.00;97610.75;4979649;28;20049;-83
2022/04/08 00:35:18;;;;;;;2.20;2.00;;;;;;;5.46;100.00;97618.75;4966976;28;20038;-81
2022/04/08 00:37:44;;;;;;;2.03;1.80;;;;;;;5.41;100.00;97619.91;4996898;28;20038;-83
2022/04/08 00:40:11;;;;;;;2.87;2.10;;;;;;;5.42;100.00;97626.84;5012135;28;20053;-81
2022/04/08 00:42:40;;;;;;;3.23;1.77;;;;;;;5.47;100.00;97630.94;4969340;28;20041;-82
2022/04/08 00:45:07;;;;;;;2.57;1.90;;;;;;;5.47;100.00;97636.19;4973013;28;20077;-83
2022/04/08 00:47:36;;;;;;;2.50;1.63;;;;;;;5.50;100.00;97630.78;4963262;28;20038;-83
2022/04/08 00:50:06;;;;;;;2.13;1.87;;;;;;;5.49;100.00;97652.66;4994761;28;20129;-83
2022/04/08 00:52:34;;;;;;;2.93;1.73;;;;;;;5.52;100.00;97668.22;4995440;28;20057;-81
2022/04/08 00:55:04;;;;;;;2.97;1.40;;;;;;;5.54;100.00;97671.59;4997805;28;20494;-83
2022/04/08 00:57:31;;;;;;;2.13;1.40;;;;;;;5.52;100.00;97685.69;4995291;28;20081;-82
2022/04/08 01:00:09;;;;;;;2.00;1.37;;;;;;;5.52;100.00;97698.78;4986246;28;20488;-83
2022/04/08 01:02:36;;;;;;;3.57;1.53;;;;;;;5.57;100.00;97709.91;4962765;28;20053;-83
2022/04/08 01:05:03;;;;;;;2.53;1.30;;;;;;;5.56;100.00;97735.25;4980694;28;20069;-83
2022/04/08 01:07:31;;;;;;;2.03;1.07;;;;;;;5.49;100.00;97740.84;4985960;28;20062;-83
2022/04/08 01:09:58;;;;;;;1.63;1.10;;;;;;;5.55;100.00;97745.75;4977398;28;20046;-82
2022/04/08 01:12:25;;;;;;;4.23;1.00;;;;;;;5.55;100.00;97753.63;4978217;28;20419;-82
2022/04/08 01:14:59;;;;;;;1.23;0.80;;;;;;;5.56;100.00;97744.88;4976969;28;20073;-82
2022/04/08 01:17:26;;;;;;;2.95;1.00;;;;;;;5.54;100.00;97752.78;4978426;28;20034;-82
2022/04/08 01:19:52;;;;;;;1.83;1.57;;;;;;;5.55;100.00;97774.56;4993440;28;20052;-82
2022/04/08 01:22:20;;;;;;;1.33;1.00;;;;;;;5.58;100.00;97774.44;4994370;28;20048;-83
2022/04/08 01:24:50;;;;;;;2.57;1.20;;;;;;;5.59;100.00;97779.59;4977368;28;20049;-82
2022/04/08 01:27:21;;;;;;;1.70;1.10;;;;;;;5.59;100.00;97784.84;4978935;28;20392;-82
2022/04/08 01:29:48;;;;;;;2.03;1.20;;;;;;;5.58;100.00;97784.94;5008880;28;20042;-82
2022/04/08 01:32:15;;;;;;;1.53;1.10;;;;;;;5.62;100.00;97792.56;4961048;28;20073;-82
2022/04/08 01:34:44;;;;;;;2.00;0.97;;;;;;;5.55;100.00;97798.13;4942939;28;20050;-83
2022/04/08 01:37:11;;;;;;;1.40;0.90;;;;;;;5.59;100.00;97807.56;4963063;28;20045;-82
2022/04/08 01:39:37;;;;;;;2.87;1.17;;;;;;;5.49;100.00;97806.31;4979528;28;20033;-83
2022/04/08 01:42:04;;;;;;;2.47;1.10;;;;;;;5.55;100.00;97808.63;4972718;28;20052;-83
2022/04/08 01:44:31;;;;;;;2.27;1.20;;;;;;;5.56;100.00;97823.44;5004268;28;20053;-82
2022/04/08 01:46:58;;;;;;;2.30;1.30;;;;;;;5.63;100.00;97825.72;5014222;28;20053;-83
2022/04/08 01:49:24;;;;;;;2.30;1.23;;;;;;;5.65;100.00;97830.88;5004879;28;20107;-82
2022/04/08 01:51:51;;;;;;;2.13;1.23;;;;;;;5.68;100.00;97837.72;5010631;28;20561;-82
2022/04/08 01:54:18;;;;;;;3.40;1.33;;;;;;;5.68;100.00;97845.59;5004397;28;20455;-82
2022/04/08 01:56:46;;;;;;;2.30;1.10;;;;;;;5.68;100.00;97856.91;5005592;28;20041;-82
2022/04/08 01:59:12;;;;;;;4.47;1.53;;;;;;;5.67;100.00;97860.44;4968507;28;20091;-81
2022/04/08 02:01:39;;;;;;;3.80;1.60;;;;;;;5.69;100.00;97860.38;4978239;28;20488;-82
2022/04/08 02:04:07;;;;;;;1.40;1.10;;;;;;;5.73;100.00;97875.06;4975278;28;20045;-82
2022/04/08 02:06:40;;;;;;;2.90;1.63;;;;;;;5.55;100.00;97874.09;4962237;28;20049;-82
2022/04/08 02:09:07;;;;;;;5.00;1.70;;;;;;;5.69;100.00;97882.19;4962921;28;20043;-82
2022/04/08 02:11:35;;;;;;;4.47;1.97;;;;;;;5.75;100.00;97895.00;4977936;28;20493;-82
2022/04/08 02:14:03;;;;;;;2.37;1.30;;;;;;;5.74;100.00;97900.31;4995002;28;20046;-82
2022/04/08 02:16:30;;;;;;;3.07;1.33;;;;;;;5.77;100.00;97911.50;4966234;28;20054;-82
2022/04/08 02:18:57;;;;;;;3.03;1.60;;;;;;;5.77;100.00;97929.00;4970803;28;20042;-81
2022/04/08 02:21:27;;;;;;;4.57;2.50;;;;;;;5.66;100.00;97932.09;4981581;28;20482;-82
2022/04/08 02:23:54;;;;;;;2.37;1.13;;;;;;;5.60;100.00;97946.28;4963870;28;20101;-82
2022/04/08 02:26:21;;;;;;;3.17;1.27;;;;;;;5.55;100.00;97948.28;4972975;28;20048;-82
2022/04/08 02:28:48;;;;;;;1.90;0.90;;;;;;;5.52;100.00;97958.88;4977094;28;20057;-82
2022/04/08 02:31:14;;;;;;;3.33;1.30;;;;;;;5.50;100.00;97947.63;4977360;28;20037;-82
2022/04/08 02:33:41;;;;;;;2.57;1.23;;;;;;;5.45;100.00;97951.34;4993372;28;20140;-83
2022/04/08 02:36:08;;;;;;;2.50;1.13;;;;;;;5.47;100.00;97963.47;4980198;28;20045;-82
2022/04/08 02:38:35;;;;;;;5.27;2.27;;;;;;;5.46;100.00;97974.00;4974543;28;20046;-81
2022/04/08 02:41:01;;;;;;;2.03;1.43;;;;;;;5.45;100.00;97967.91;4959519;28;20046;-82
2022/04/08 02:43:28;;;;;;;2.00;1.07;;;;;;;5.45;100.00;97981.00;4975856;28;20049;-82
2022/04/08 02:45:55;;;;;;;1.67;1.10;;;;;;;5.47;100.00;97984.44;4994922;28;20056;-82
2022/04/08 02:48:21;;;;;;;1.90;1.27;;;;;;;5.46;100.00;97990.56;4979809;28;20622;-81
2022/04/08 02:50:48;;;;;;;2.90;1.43;;;;;;;5.48;100.00;97993.13;4997049;28;20515;-82
2022/04/08 02:53:15;;;;;;;1.90;1.20;;;;;;;5.54;100.00;98003.31;4973078;28;20049;-81
2022/04/08 02:55:42;;;;;;;2.20;1.20;;;;;;;5.55;100.00;97995.44;4986944;28;20709;-81
2022/04/08 02:58:08;;;;;;;2.57;1.40;;;;;;;5.56;100.00;98007.59;5025486;28;20052;-81
2022/04/08 03:00:35;;;;;;;2.67;1.43;;;;;;;5.58;100.00;98016.22;4983882;28;20579;-82
2022/04/08 03:03:02;;;;;;;1.80;1.20;;;;;;;5.55;100.00;98024.22;5021416;28;20038;-81
2022/04/08 03:05:29;;;;;;;2.57;1.50;;;;;;;5.55;100.00;98016.38;5004533;28;20113;-80
2022/04/08 03:07:55;;;;;;;2.77;1.37;;;;;;;5.59;100.00;98038.03;4988735;28;20046;-81
2022/04/08 03:10:24;;;;;;;3.20;1.40;;;;;;;5.54;100.00;98035.59;5007521;28;20064;-81
2022/04/08 03:12:51;;;;;;;2.57;1.40;;;;;;;5.57;100.00;98038.09;4994174;28;20495;-80
2022/04/08 03:15:18;;;;;;;1.90;1.27;;;;;;;5.62;100.00;98045.75;4977047;28;20038;-80
2022/04/08 03:17:45;;;;;;;1.50;1.10;;;;;;;5.54;100.00;98053.06;5002578;28;20134;-80
2022/04/08 03:20:12;;;;;;;2.30;1.40;;;;;;;5.54;100.00;98061.78;5017125;28;20065;-80
2022/04/08 03:22:39;;;;;;;2.67;1.50;;;;;;;5.48;100.00;98069.06;4996737;28;20052;-80
2022/04/08 03:25:06;;;;;;;2.83;1.27;;;;;;;5.42;100.00;98079.78;4988127;28;20046;-80
2022/04/08 03:27:32;;;;;;;2.30;1.60;;;;;;;5.49;100.00;98076.84;5000138;28;20046;-80
2022/04/08 03:29:59;;;;;;;2.63;1.40;;;;;;;5.46;100.00;98083.97;4998671;28;20046;-80
2022/04/08 03:32:26;;;;;;;2.77;1.43;;;;;;;5.43;100.00;98097.19;5016705;28;20041;-81
2022/04/08 03:34:57;;;;;;;2.43;1.30;;;;;;;5.43;100.00;98103.28;4984112;28;20037;-80
2022/04/08 03:37:25;;;;;;;3.60;1.43;;;;;;;5.40;100.00;98121.75;4995929;28;20046;-80
2022/04/08 03:39:53;;;;;;;2.30;1.33;;;;;;;5.40;100.00;98141.84;4974840;28;20042;-80
2022/04/08 03:42:20;;;;;;;3.23;1.30;;;;;;;5.36;100.00;98133.25;4998429;28;20093;-80
2022/04/08 03:44:47;;;;;;;2.80;1.60;;;;;;;5.36;100.00;98143.72;5005184;28;20096;-80
2022/04/08 03:47:14;;;;;;;1.23;1.00;;;;;;;5.39;100.00;98143.59;5016821;28;20042;-80
2022/04/08 03:49:40;;;;;;;2.97;1.10;;;;;;;5.32;100.00;98150.84;4983430;28;20128;-80
2022/04/08 03:52:10;;;;;;;2.93;1.57;;;;;;;5.25;100.00;98172.09;4985549;28;20052;-80
2022/04/08 03:54:37;;;;;;;3.47;1.20;;;;;;;5.29;100.00;98171.88;4986512;28;20447;-81
2022/04/08 03:57:05;;;;;;;4.40;1.27;;;;;;;5.23;100.00;98187.00;4981467;28;20097;-81
2022/04/08 03:59:38;;;;;;;;;;;;;;;5.17;100.00;98201.16;4971681;28;20049;-80
2022/04/08 04:02:05;;;;;;;1.07;0.97;;;;;;;5.16;100.00;98201.22;4981820;28;19929;-80
2022/04/08 04:04:32;;;;;;;4.90;1.13;;;;;;;5.14;100.00;98198.69;4988260;28;20048;-80
2022/04/08 04:06:59;;;;;;;1.20;1.00;;;;;;;5.09;98.87;98211.06;4998431;28;20068;-80
2022/04/08 04:09:26;;;;;;;1.23;0.90;;;;;;;5.14;99.56;98208.28;5013921;28;20442;-80
2022/04/08 04:11:52;;;;;;;2.17;1.00;;;;;;;5.09;98.71;98205.84;5022547;28;20042;-80
2022/04/08 04:14:19;;;;;;;1.60;1.00;;;;;;;5.08;99.20;98214.59;4997343;28;20396;-80
2022/04/08 04:16:46;;;;;;;2.23;1.00;;;;;;;5.12;97.10;98217.94;4996317;28;20148;-80
2022/04/08 04:19:12;;;;;;;1.80;1.17;;;;;;;5.12;98.69;98224.03;4996616;28;20038;-81
2022/04/08 04:21:39;;;;;;;3.17;0.90;;;;;;;5.09;98.93;98240.72;5019983;28;20057;-80
2022/04/08 04:24:06;;;;;;;3.17;0.80;;;;;;;5.09;98.20;98237.25;4992095;28;20068;-80
2022/04/08 04:26:33;;;;;;;1.63;0.80;;;;;;;5.12;99.65;98238.88;4991333;28;20467;-81
2022/04/08 04:28:59;;;;;;;1.63;0.90;;;;;;;5.09;99.02;98247.72;4993680;28;20100;-80
2022/04/08 04:31:26;;;;;;;2.07;0.83;;;;;;;5.06;99.39;98253.06;5006649;28;20046;-80
2022/04/08 04:33:53;;;;;;;1.10;1.00;;;;;;;5.05;98.45;98273.16;4977675;28;20054;-80
2022/04/08 04:36:19;;;;;;;3.43;2.03;;;;;;;4.99;97.89;98267.28;5007083;28;20042;-79
2022/04/08 04:38:46;;;;;;;2.97;1.23;;;;;;;5.04;98.22;98286.25;5011130;28;20042;-79
2022/04/08 04:41:13;;;;;;;2.17;1.10;;;;;;;4.98;98.25;98282.13;4995669;28;20042;-80
2022/04/08 04:43:39;;;;;;;2.10;0.83;;;;;;;5.03;98.07;98290.66;4994101;28;20385;-79
2022/04/08 04:46:06;;;;;;;1.80;1.10;;;;;;;4.93;99.43;98291.03;4994857;28;20108;-80
2022/04/08 04:48:33;;;;;;;3.87;0.90;;;;;;;4.97;99.63;98303.97;4974768;28;20049;-79
2022/04/08 04:50:59;;;;;;;1.70;0.90;;;;;;;5.05;99.48;98312.41;5006028;28;20046;-80
2022/04/08 04:53:26;;;;;;;1.57;0.90;;;;;;;5.05;98.24;98315.03;5002048;28;20046;-79
2022/04/08 04:55:54;;;;;;;3.23;0.93;;;;;;;5.02;99.74;98325.56;4980412;28;20042;-78
2022/04/08 04:58:21;;;;;;;1.67;0.93;;;;;;;5.04;100.00;98323.78;5011681;28;20125;-80
2022/04/08 05:00:47;;;;;;;2.13;1.00;;;;;;;4.93;100.00;98341.59;4996047;28;20107;-79
2022/04/08 05:03:14;;;;;;;4.53;1.00;;;;;;;4.91;100.00;98346.03;5011814;28;20107;-80
2022/04/08 05:05:41;;;;;;;3.30;1.20;;;;;;;4.83;100.00;98349.84;4996956;28;20080;-80
2022/04/08 05:08:08;;;;;;;4.50;1.30;;;;;;;4.78;100.00;98350.81;4979625;28;20049;-81
2022/04/08 05:10:35;;;;;;;3.57;1.30;;;;;;;4.80;100.00;98358.66;4995642;28;20042;-80
2022/04/08 05:13:02;;;;;;;1.93;1.20;;;;;;;4.73;100.00;98359.75;4994449;28;20435;-80
2022/04/08 05:15:29;;;;;;;3.73;1.43;;;;;;;4.72;100.00;98371.97;4956210;28;20045;-79
2022/04/08 05:17:58;;;;;;;4.90;1.60;;;;;;;4.73;100.00;98378.06;4977119;28;20037;-80
2022/04/08 05:20:25;;;;;;;3.87;1.80;;;;;;;4.68;100.00;98398.28;4972437;28;20444;-80
2022/04/08 05:22:52;;;;;;;3.23;1.30;;;;;;;4.65;100.00;98390.53;4994824;28;20058;-80
2022/04/08 05:25:19;;;;;;;4.33;1.77;;;;;;;4.61;100.00;98396.75;5009495;28;20487;-80
2022/04/08 05:27:45;;;;;;;4.60;1.40;;;;;;;4.53;100.00;98392.63;5008865;28;20048;-81
2022/04/08 05:30:16;;;;;;;2.47;1.60;;;;;;;4.55;100.00;98410.91;4961961;28;20045;-80
2022/04/08 05:32:44;;;;;;;3.13;1.40;;;;;;;4.44;100.00;98420.84;4991225;28;20050;-80
2022/04/08 05:35:10;;;;;;;2.13;1.40;;;;;;;4.50;100.00;98425.88;4976636;28;20045;-80
2022/04/08 05:37:39;;;;;;;3.37;1.23;;;;;;;4.50;100.00;98425.88;4960679;28;20050;-80
2022/04/08 05:40:06;;;;;;;3.43;1.53;;;;;;;4.57;100.00;98444.84;4982193;28;20045;-80
2022/04/08 05:42:33;;;;;;;3.07;1.30;;;;;;;4.57;100.00;98450.94;4979127;28;20034;-80
2022/04/08 05:45:08;;;;;;;3.23;1.20;;;;;;;4.61;100.00;98467.38;4991999;28;20037;-80
2022/04/08 05:47:35;;;;;;;6.40;1.60;;;;;;;4.49;100.00;98485.16;5063559;23;20044;-84
2022/04/08 05:50:02;;;;;;;2.37;1.13;;;;;;;4.00;100.00;98490.97;4995415;28;20053;-84
2022/04/08 05:52:29;;;;;;;1.93;1.00;;;;;;;4.10;100.00;98478.50;5012818;28;20045;-83
2022/04/08 05:54:56;;;;;;;1.27;0.90;;;;;;;3.99;100.00;98464.91;4993775;28;20100;-84
2022/04/08 05:57:23;;;;;;;1.33;0.80;;;;;;;3.92;100.00;98469.44;5006396;28;20049;-85
2022/04/08 05:59:50;;;;;;;1.43;0.73;;;;;;;3.98;100.00;98460.59;4992477;28;20415;-84
2022/04/08 06:02:17;;;;;;;1.63;1.10;;;;;;;3.87;100.00;98463.50;5044100;28;20048;-85
2022/04/08 06:04:44;;;;;;;3.80;1.37;;;;;;;3.92;100.00;98469.44;5029759;28;20041;-85
2022/04/08 06:07:10;;;;;;;5.20;1.17;;;;;;;3.98;100.00;98469.28;5013179;28;20038;-85
2022/04/08 06:09:37;;;;;;;3.50;1.30;;;;;;;3.97;100.00;98474.56;4993578;28;20056;-86
2022/04/08 06:12:04;;;;;;;2.50;1.00;;;;;;;3.96;100.00;98476.31;4995003;28;20042;-85
2022/04/08 06:14:30;;;;;;;1.90;0.97;;;;;;;3.93;100.00;98477.22;4983160;28;20046;-85
2022/04/08 06:16:57;;;;;;;2.37;1.20;;;;;;;4.02;100.00;98486.56;5011482;28;20060;-85
2022/04/08 06:19:24;;;;;;;2.93;1.23;;;;;;;4.04;100.00;98497.00;5032257;28;20057;-85
2022/04/08 06:21:50;;;;;;;2.10;1.20;;;;;;;4.13;100.00;98496.72;5017256;28;20061;-86
2022/04/08 06:24:18;;;;;;;2.37;1.20;;;;;;;4.15;100.00;98498.38;5017819;28;20049;-85
2022/04/08 06:26:44;;;;;;;2.73;1.40;;;;;;;4.17;100.00;98507.03;4988532;28;20052;-87
2022/04/08 06:29:11;;;;;;;2.80;1.80;;;;;;;4.20;100.00;98517.41;5034308;28;20052;-86
2022/04/08 06:31:44;;;;;;;3.50;2.00;;;;;;;4.37;100.00;98522.16;5003745;28;20045;-85
2022/04/08 06:34:10;;;;;;;1.90;1.47;;;;;;;4.49;100.00;98528.75;4999057;28;20057;-86
2022/04/08 06:36:37;;;;;;;4.60;3.13;;;;;;;4.56;100.00;98530.28;5006484;28;20037;-85
2022/04/08 06:39:05;;;;;;;5.93;1.47;;;;;;;4.64;100.00;98543.13;4998049;28;20065;-85
2022/04/08 06:41:32;;;;;;;2.47;1.40;;;;;;;4.67;100.00;98553.50;4988432;28;20467;-86
2022/04/08 06:43:59;;;;;;;6.27;1.90;;;;;;;4.67;100.00;98549.13;5000556;28;20387;-85
2022/04/08 06:46:25;;;;;;;3.87;1.87;;;;;;;4.64;100.00;98549.22;5007495;28;20041;-86
2022/04/08 06:48:52;;;;;;;6.33;2.97;;;;;;;4.59;100.00;98551.09;4985418;28;20046;-86
2022/04/08 06:51:19;;;;;;;7.10;2.53;;;;;;;4.76;100.00;98563.69;5020549;28;20570;-86
2022/04/08 06:53:46;;;;;;;5.43;3.00;;;;;;;4.79;100.00;98561.84;5027121;28;20053;-85
2022/04/08 06:56:12;;;;;;;5.03;2.47;;;;;;;4.78;100.00;98561.84;5009028;28;20045;-86
2022/04/08 06:58:39;;;;;;;6.20;1.70;;;;;;;4.80;97.82;98565.31;5007651;28;20049;-86
2022/04/08 07:01:06;;;;;;;3.83;1.37;;;;;;;4.90;100.00;98561.50;5017397;28;20041;-86
2022/04/08 07:03:34;;;;;;;3.77;1.30;;;;;;;5.03;98.65;98585.50;5028298;28;20107;-86
2022/04/08 07:06:01;;;;;;;7.53;1.80;;;;;;;5.22;97.90;98588.44;5023642;28;20042;-86
2022/04/08 07:08:27;;;;;;;3.17;1.87;;;;;;;5.32;98.85;98588.06;5022035;28;20084;-85
2022/04/08 07:10:54;;;;;;;4.73;1.40;;;;;;;5.36;95.74;98587.06;4992637;28;20038;-86
2022/04/08 07:13:21;;;;;;;6.23;1.80;;;;;;;5.45;95.64;98592.91;5022224;28;20056;-87
2022/04/08 07:15:47;;;;;;;4.87;1.43;;;;;;;5.50;98.48;98594.47;5027461;28;20049;-87
2022/04/08 07:18:14;;;;;;;3.77;1.57;;;;;;;5.57;94.14;98598.59;5006072;28;20049;-86
2022/04/08 07:20:41;;;;;;;6.93;2.43;;;;;;;5.69;94.42;98609.56;5006503;28;20049;-87
2022/04/08 07:23:08;;;;;;;3.83;1.73;;;;;;;5.69;91.90;98594.69;5026533;28;20080;-86
2022/04/08 07:25:34;;;;;;;5.97;1.93;;;;;;;5.63;90.91;98616.75;5004926;28;20109;-85
2022/04/08 07:28:01;;;;;;;4.20;2.03;;;;;;;5.64;91.45;98623.69;5023874;28;20057;-88
2022/04/08 07:30:28;;;;;;;4.33;1.73;;;;;;;5.60;91.74;98619.44;5040860;28;20137;-86
2022/04/08 07:32:55;;;;;;;6.20;1.70;;;;;;;5.68;92.12;98628.81;4988014;28;20057;-87
2022/04/08 07:35:23;;;;;;;3.60;1.30;;;;;;;5.61;90.77;98628.16;5008324;28;20053;-86
2022/04/08 07:37:50;;;;;;;6.20;1.67;;;;;;;5.89;93.94;98623.72;5025592;28;20038;-85
2022/04/08 07:40:17;;;;;;;5.00;1.83;;;;;;;6.19;90.24;98627.06;5023664;28;20049;-87
2022/04/08 07:42:44;;;;;;;11.67;2.50;;;;;;;6.22;86.79;98636.56;5017852;28;20107;-85
2022/04/08 07:45:11;;;;;;;4.23;1.50;;;;;;;6.08;86.11;98634.47;4997164;28;20395;-86
2022/04/08 07:47:38;;;;;;;10.63;2.37;;;;;;;6.41;87.81;98640.28;5024825;28;20041;-86
2022/04/08 07:50:10;;;;;;;4.90;2.03;;;;;;;6.70;87.40;98647.06;5035938;28;20041;-86
2022/04/08 07:52:41;;;;;;;6.37;1.80;;;;;;;6.95;89.00;98638.28;5012478;28;20576;-87
2022/04/08 07:55:08;;;;;;;6.70;2.50;;;;;;;6.90;81.31;98654.22;5019991;28;20065;-87
2022/04/08 07:57:50;;;;;;;6.60;1.60;;;;;;;6.95;85.01;98648.78;5000663;28;20049;-86
2022/04/08 08:00:19;;;;;;;8.60;2.00;;;;;;;6.97;83.42;98662.72;5006563;28;20033;-86
2022/04/08 08:02:48;;;;;;;6.10;2.00;;;;;;;6.83;86.31;98665.00;5038008;28;20049;-86
2022/04/08 08:05:15;;;;;;;6.63;1.70;;;;;;;6.76;81.05;98653.88;5022794;28;20045;-87
2022/04/08 08:07:55;;;;;;;4.00;1.63;;;;;;;6.99;81.87;98661.75;5021917;28;20041;-87
2022/04/08 08:10:27;;;;;;;6.80;2.00;;;;;;;7.12;84.63;98672.63;5021985;28;20052;-86
2022/04/08 08:12:55;;;;;;;9.23;1.87;;;;;;;7.03;77.80;98665.09;5023359;28;20124;-87
2022/04/08 08:15:24;;;;;;;6.43;1.63;;;;;;;7.16;79.88;98669.00;5037256;28;20120;-86
2022/04/08 08:17:51;;;;;;;6.60;2.00;;;;;;;7.31;80.69;98665.78;5006589;28;20581;-86
2022/04/08 08:20:19;;;;;;;6.00;1.67;;;;;;;6.87;71.97;98669.22;5020068;28;20049;-87
2022/04/08 08:22:47;;;;;;;10.60;2.50;;;;;;;7.08;72.52;98676.31;5021332;28;20045;-86
2022/04/08 08:25:13;;;;;;;9.37;1.67;;;;;;;7.31;73.85;98678.03;5020859;28;20046;-86
2022/04/08 08:27:42;;;;;;;8.17;3.00;;;;;;;7.55;76.05;98668.31;5000699;28;20045;-86
2022/04/08 08:30:10;;;;;;;9.00;2.37;;;;;;;7.73;72.80;98664.94;5018923;28;20062;-86
2022/04/08 08:32:38;;;;;;;6.30;2.10;;;;;;;7.66;71.46;98681.91;5003001;28;20049;-87
2022/04/08 08:35:07;;;;;;;11.73;2.37;;;;;;;7.62;71.61;98693.44;5008744;28;20045;-87
2022/04/08 08:37:34;;;;;;;5.57;1.63;;;;;;;7.51;70.81;98716.69;5038780;28;20060;-86
2022/04/08 08:40:03;;;;;;;8.90;2.33;;;;;;;7.42;71.75;98709.16;5019403;28;20051;-87
2022/04/08 08:42:29;;;;;;;5.90;1.73;;;;;;;7.53;67.70;98693.81;5025306;28;20045;-86
2022/04/08 08:44:56;;;;;;;3.47;1.90;;;;;;;7.62;67.17;98699.56;5019013;28;20045;-86
2022/04/08 08:47:25;;;;;;;6.97;2.70;;;;;;;7.71;66.81;98690.44;5005096;28;20052;-85
2022/04/08 08:49:52;;;;;;;4.73;1.70;;;;;;;7.74;68.27;98695.59;4987280;28;20072;-86
2022/04/08 08:52:19;;;;;;;5.97;2.10;;;;;;;7.58;66.35;98703.25;4985874;28;20037;-85
2022/04/08 08:54:46;;;;;;;7.90;2.30;;;;;;;7.59;67.27;98702.31;5000755;28;20045;-86
2022/04/08 08:57:20;;;;;;;7.77;2.60;;;;;;;7.88;70.71;98705.53;5000850;28;20046;-85
2022/04/08 08:59:47;;;;;;;3.25;1.50;;;;;;;8.01;69.02;98711.16;4988368;28;20060;-85
2022/04/08 09:02:18;;;;;;;7.17;2.13;;;;;;;8.38;70.79;98715.75;5013757;28;20033;-86
2022/04/08 09:04:45;;;;;;;8.03;2.37;;;;;;;8.31;63.80;98723.03;5013432;28;20103;-87
2022/04/08 09:07:26;;;;;;;5.07;1.98;;;;;;;7.79;62.79;98713.78;5047570;28;20056;-84
2022/04/08 09:09:54;;;;;;;7.10;2.10;;;;;;;8.08;62.29;98723.16;5030216;28;20052;-85
2022/04/08 09:12:26;;;;;;;5.83;1.30;;;;;;;8.26;65.57;98729.41;5030873;28;20731;-84
2022/04/08 09:14:54;;;;;;;8.63;2.53;;;;;;;8.13;63.51;98723.78;5004107;28;20045;-86
2022/04/08 09:17:21;;;;;;;6.47;2.20;;;;;;;8.22;63.43;98731.31;5014931;28;20049;-84
2022/04/08 09:19:49;;;;;;;8.52;1.98;;;;;;;8.21;62.72;98729.59;5012985;28;20052;-84
2022/04/08 09:22:16;;;;;;;7.30;2.05;;;;;;;8.41;56.31;98726.19;4993324;28;20294;-84
2022/04/08 09:24:43;;;;;;;4.25;1.40;;;;;;;8.58;57.59;98746.50;5009696;28;20053;-85
2022/04/08 09:27:11;;;;;;;5.40;2.03;;;;;;;8.54;57.12;98723.88;5006039;28;20045;-85
2022/04/08 09:29:41;;;;;;;7.63;1.35;;;;;;;8.79;60.29;98742.94;5001714;28;20128;-85
2022/04/08 09:32:28;;;;;;;8.25;1.52;;;;;;;9.08;59.00;98719.69;5016751;28;20046;-85
2022/04/08 09:34:55;;;;;;;4.97;1.75;;;;;;;9.32;56.86;98715.94;5012415;28;20045;-84
2022/04/08 09:37:22;;;;;;;4.75;1.88;;;;;;;9.34;53.61;98716.75;4985535;28;20052;-84
2022/04/08 09:40:07;;;;;;;4.35;1.30;;;;;;;9.31;54.67;98723.00;4997088;28;20071;-85
2022/04/08 09:42:42;;;;;;;4.75;1.40;;;;;;;8.66;57.11;98723.31;5010947;28;20069;-83
2022/04/08 09:45:10;;;;;;;5.72;1.92;;;;;;;8.45;57.91;98733.84;4998476;28;20503;-85
2022/04/08 09:47:37;;;;;;;2.92;1.30;;;;;;;8.35;57.45;98734.31;4993880;28;20037;-84
2022/04/08 09:50:10;;;;;;;3.10;1.42;;;;;;;8.42;58.11;98726.09;4990813;28;20060;-86
2022/04/08 09:52:38;;;;;;;6.65;1.80;;;;;;;8.98;61.64;98722.75;5014150;28;20048;-85
2022/04/08 09:55:07;;;;;;;4.93;1.50;;;;;;;9.21;58.48;98731.41;5013099;28;20056;-84
2022/04/08 09:57:37;;;;;;;5.75;1.52;;;;;;;9.14;58.16;98735.22;4989435;28;20442;-84
2022/04/08 10:00:05;;;;;;;7.07;2.08;;;;;;;9.00;56.17;98731.47;4996443;28;20045;-86
2022/04/08 10:02:39;;;;;;;6.05;2.15;;;;;;;8.95;55.63;98725.53;5011080;28;20490;-85
2022/04/08 10:05:08;;;;;;;4.20;2.00;;;;;;;8.69;54.51;98737.22;5009122;28;20092;-85
2022/04/08 10:07:36;;;;;;;4.82;1.20;;;;;;;8.88;55.70;98734.63;4990974;28;20124;-86
2022/04/08 10:10:21;;;;;;;6.80;2.20;;;;;;;9.19;56.47;98735.91;4997228;28;20079;-86
2022/04/08 10:13:24;;;;;;;2.78;1.20;;;;;;;8.82;52.82;98744.56;4997806;28;20041;-85
2022/04/08 10:16:01;;;;;;;4.90;1.33;;;;;;;8.40;54.07;98750.75;5012929;28;20051;-84
2022/04/08 10:18:39;;;;;;;4.90;1.50;;;;;;;8.79;58.77;98736.81;4993062;28;20510;-85
2022/04/08 10:21:06;;;;;;;4.20;1.55;;;;;;;9.36;57.64;98746.50;4993703;28;20049;-84
2022/04/08 10:23:38;;;;;;;2.60;1.40;;;;;;;9.16;55.88;98743.91;5008489;28;20060;-84
2022/04/08 10:26:15;;;;;;;4.47;1.20;;;;;;;9.21;57.37;98741.94;5009963;28;20048;-82
2022/04/08 10:28:42;;;;;;;2.38;1.00;;;;;;;9.00;59.55;98749.03;4985408;28;20042;-85
2022/04/08 10:31:23;;;;;;;2.17;1.25;;;;;;;8.76;60.52;98748.34;4992044;28;20045;-84
2022/04/08 10:33:55;;;;;;;4.20;1.00;;;;;;;8.56;61.14;98756.22;4992408;28;20411;-84
2022/04/08 10:36:39;;;;;;;4.53;1.27;;;;;;;8.35;61.76;98758.84;4986094;28;20064;-84
2022/04/08 10:39:16;;;;;;;2.80;1.10;;;;;;;7.92;63.89;98766.75;5028980;28;20041;-83
2022/04/08 10:41:57;;;;;;;2.43;1.07;;;;;;;7.80;66.36;98763.69;5011392;28;20103;-86
2022/04/08 10:44:38;;;;;;;2.65;1.23;;;;;;;7.87;68.52;98762.53;5000422;28;20029;-87
2022/04/08 10:47:16;;;;;;;3.07;1.10;;;;;;;7.76;64.05;98762.09;4995656;28;20507;-85
2022/04/08 10:50:04;;;;;;;2.60;0.90;;;;;;;8.12;65.58;98751.88;4988698;28;20081;-85
2022/04/08 10:52:39;;;;;;;3.67;1.30;;;;;;;8.18;63.65;98753.41;4996408;28;20049;-85
2022/04/08 10:55:08;;;;;;;1.30;0.80;;;;;;;8.17;63.46;98755.19;5011923;28;20182;-86
2022/04/08 10:57:36;;;;;;;3.20;1.08;;;;;;;8.23;64.69;98754.06;5013278;28;20037;-85
2022/04/08 11:00:08;;;;;;;3.42;1.45;;;;;;;8.21;64.33;98765.56;5011687;28;20056;-85
2022/04/08 11:02:39;;;;;;;3.57;0.97;;;;;;;8.16;64.48;98755.25;4997746;28;20473;-84
2022/04/08 11:05:08;;;;;;;3.97;1.07;;;;;;;8.06;63.86;98767.03;5012014;28;20095;-85
2022/04/08 11:07:42;;;;;;;1.73;1.00;;;;;;;7.97;62.68;98749.84;5009876;28;20042;-83
2022/04/08 11:10:17;;;;;;;2.38;1.27;;;;;;;8.18;65.33;98748.16;4983926;28;20041;-84
2022/04/08 11:12:44;;;;;;;3.00;1.47;;;;;;;8.30;63.98;98750.25;5013018;28;20057;-86
2022/04/08 11:15:16;;;;;;;2.87;1.13;;;;;;;8.62;61.26;98745.44;5011732;28;20041;-85
2022/04/08 11:17:43;;;;;;;3.20;1.08;;;;;;;8.73;62.61;98745.81;5012971;28;20053;-84
2022/04/08 11:20:13;;;;;;;2.67;1.17;;;;;;;8.81;62.56;98746.34;5011413;28;20096;-85
2022/04/08 11:22:58;;;;;;;2.53;1.07;;;;;;;8.75;62.77;98744.00;5029389;28;20038;-86
2022/04/08 11:25:27;;;;;;;2.42;1.17;;;;;;;8.70;63.15;98738.06;4994637;28;20038;-86
2022/04/08 11:27:58;;;;;;;2.88;1.23;;;;;;;8.88;63.94;98739.88;5012607;28;20053;-86
2022/04/08 11:30:25;;;;;;;6.25;1.58;;;;;;;9.04;63.32;98732.16;5014757;28;20069;-85
2022/04/08 11:32:52;;;;;;;2.65;1.23;;;;;;;8.96;60.39;98739.56;5004715;28;20050;-86
2022/04/08 11:35:19;;;;;;;3.25;1.58;;;;;;;9.34;62.12;98729.06;5011592;28;20053;-85
2022/04/08 11:37:46;;;;;;;3.55;1.95;;;;;;;9.56;61.61;98740.31;5012963;28;20049;-84
2022/04/08 11:40:17;;;;;;;3.40;1.70;;;;;;;9.39;61.19;98734.97;4995773;28;20045;-86
2022/04/08 11:42:45;;;;;;;2.83;1.25;;;;;;;9.13;61.28;98729.13;5013508;28;20495;-86